createdAt,value
2022-11-13T00:08:42.091Z,10.83
2022-11-13T00:19:05.925Z,10.32
2022-11-13T00:29:27.420Z,9.82
2022-11-13T00:39:48.863Z,10.00
2022-11-13T00:50:10.343Z,9.13
2022-11-13T01:00:32.529Z,9.13
2022-11-13T01:10:54.142Z,8.80
2022-11-13T01:21:22.049Z,8.73
2022-11-13T01:31:43.516Z,8.13
2022-11-13T01:42:05.076Z,7.43
2022-11-13T01:52:33.487Z,7.10
2022-11-13T02:02:54.964Z,7.65
2022-11-13T02:13:16.847Z,7.67
2022-11-13T02:24:13.737Z,8.15
2022-11-13T02:34:36.357Z,8.13
2022-11-13T02:44:57.804Z,8.47
2022-11-13T02:55:19.492Z,8.17
2022-11-13T03:05:40.951Z,8.87
2022-11-13T03:16:12.892Z,5.60
2022-11-13T03:36:55.731Z,7.60
2022-11-13T03:47:18.140Z,7.80
2022-11-13T03:57:39.609Z,7.22
2022-11-13T04:08:01.052Z,7.10
2022-11-13T04:18:22.798Z,6.67
2022-11-13T04:28:44.265Z,6.53
2022-11-13T04:39:06.077Z,6.70
2022-11-13T04:49:27.579Z,6.65
2022-11-13T04:59:49.381Z,6.70
2022-11-13T05:10:10.948Z,6.10
2022-11-13T05:20:32.558Z,7.07
2022-11-13T05:30:54.011Z,6.33
2022-11-13T05:41:18.623Z,7.03
2022-11-13T05:51:41.005Z,6.68
2022-11-13T06:02:02.563Z,6.50
2022-11-13T06:12:24.247Z,6.67
2022-11-13T06:22:45.778Z,6.63
2022-11-13T06:33:07.261Z,6.83
2022-11-13T06:43:29.378Z,6.30
2022-11-13T07:04:14.855Z,6.70
2022-11-13T07:14:36.323Z,7.20
2022-11-13T07:24:58.823Z,7.57
2022-11-13T07:35:20.344Z,7.93
2022-11-13T07:45:43.434Z,8.20
2022-11-13T07:56:05.479Z,9.75
2022-11-13T08:16:49.500Z,8.30
2022-11-13T08:27:11.006Z,8.20
2022-11-13T08:37:33.291Z,8.00
2022-11-13T08:47:54.899Z,8.45
2022-11-13T08:58:16.473Z,8.93
2022-11-13T09:08:37.911Z,9.60
2022-11-13T09:18:59.434Z,9.17
2022-11-13T09:29:23.239Z,9.20
2022-11-13T09:39:44.776Z,9.90
2022-11-13T09:50:19.577Z,9.93
2022-11-13T10:00:41.316Z,10.82
2022-11-13T10:11:14.523Z,9.88
2022-11-13T10:22:31.605Z,9.65
2022-11-13T10:32:47.643Z,10.73
2022-11-13T10:43:18.511Z,10.32
2022-11-13T10:53:42.485Z,9.50
2022-11-13T11:04:05.979Z,9.75
2022-11-13T11:14:33.926Z,9.60
2022-11-13T11:25:06.057Z,9.27
2022-11-13T11:35:46.202Z,9.23
2022-11-13T11:46:15.343Z,9.93
2022-11-13T11:56:44.487Z,9.48
2022-11-13T12:07:22.509Z,10.40
2022-11-13T12:18:15.527Z,10.50
2022-11-13T12:28:50.421Z,9.93
2022-11-13T12:39:30.706Z,9.07
2022-11-13T12:50:00.493Z,9.48
2022-11-13T13:00:30.423Z,8.85
2022-11-13T13:11:04.415Z,8.32
2022-11-13T13:21:25.916Z,7.00
2022-11-13T13:32:20.429Z,6.27
2022-11-13T13:43:06.676Z,6.38
2022-11-13T13:53:32.225Z,9.15
2022-11-13T14:04:13.736Z,9.43
2022-11-13T14:14:35.188Z,9.73
2022-11-13T14:25:01.619Z,9.17
2022-11-13T14:35:25.628Z,8.45
2022-11-13T14:45:58.892Z,8.60
2022-11-13T14:56:43.921Z,8.52
2022-11-13T15:07:23.051Z,8.45
2022-11-13T15:17:46.849Z,8.57
2022-11-13T15:28:08.965Z,7.47
2022-11-13T15:38:30.553Z,7.63
2022-11-13T15:49:00.964Z,7.43
2022-11-13T15:59:22.524Z,7.20
2022-11-13T16:09:44.783Z,7.27
2022-11-13T16:20:08.999Z,8.18
2022-11-13T16:30:31.357Z,9.70
2022-11-13T16:40:52.837Z,9.55
2022-11-13T16:51:14.734Z,10.33
2022-11-13T17:01:36.272Z,11.15
2022-11-13T17:11:57.753Z,11.30
2022-11-13T17:22:19.203Z,13.07
2022-11-13T17:32:40.810Z,11.90
2022-11-13T17:43:02.283Z,12.73
2022-11-13T17:53:24.691Z,12.60
2022-11-13T18:03:47.168Z,13.98
2022-11-13T18:14:08.878Z,15.32
2022-11-13T18:24:30.381Z,16.03
2022-11-13T18:34:51.979Z,16.63
2022-11-13T18:45:16.317Z,17.10
2022-11-13T18:55:37.870Z,16.48
2022-11-13T19:05:59.355Z,15.03
2022-11-13T19:16:24.751Z,13.37
2022-11-13T19:26:46.423Z,13.52
2022-11-13T19:37:07.913Z,12.60
2022-11-13T19:47:29.948Z,13.73
2022-11-13T19:57:51.505Z,12.23
2022-11-13T20:08:13.822Z,10.57
2022-11-13T20:18:36.050Z,11.88
2022-11-13T20:28:57.592Z,11.68
2022-11-13T20:39:19.280Z,11.37
2022-11-13T20:49:40.959Z,12.70
2022-11-13T21:00:02.813Z,14.13
2022-11-13T21:10:24.294Z,14.30
2022-11-13T21:20:46.320Z,15.23
2022-11-13T21:41:31.697Z,15.90
2022-11-13T21:51:53.168Z,17.33
2022-11-13T22:02:14.671Z,18.97
2022-11-13T22:12:36.231Z,20.20
2022-11-13T22:22:57.685Z,18.87
2022-11-13T22:33:19.197Z,19.70
2022-11-13T22:43:42.342Z,18.83
2022-11-13T22:54:09.136Z,18.80
2022-11-13T23:04:30.606Z,19.58
2022-11-13T23:14:52.101Z,19.73
2022-11-13T23:25:13.575Z,20.30
2022-11-13T23:35:35.118Z,20.30
2022-11-13T23:45:56.845Z,19.10
2022-11-13T23:56:18.327Z,20.23
